sensor_id;sensor_type;location;lat;lon;timestamp;P1;durP1;ratioP1;P2;durP2;ratioP2
3943;SDS011;1986;52.546;13.428;2024-02-14T00:00:47;5.60;;;5.60;;
3943;SDS011;1986;52.546;13.428;2024-02-14T00:03:18;5.40;;;5.40;;
3943;SDS011;1986;52.546;13.428;2024-02-14T00:05:46;5.60;;;5.60;;
3943;SDS011;1986;52.546;13.428;2024-02-14T00:08:14;5.87;;;5.87;;
3943;SDS011;1986;52.546;13.428;2024-02-14T00:10:42;5.97;;;5.97;;
3943;SDS011;1986;52.546;13.428;2024-02-14T00:13:10;5.83;;;5.83;;
3943;SDS011;1986;52.546;13.428;2024-02-14T00:15:38;5.50;;;5.50;;
3943;SDS011;1986;52.546;13.428;2024-02-14T00:18:05;5.40;;;5.40;;
3943;SDS011;1986;52.546;13.428;2024-02-14T00:20:35;5.20;;;5.20;;
3943;SDS011;1986;52.546;13.428;2024-02-14T00:23:04;4.60;;;4.60;;
3943;SDS011;1986;52.546;13.428;2024-02-14T00:25:32;4.70;;;4.70;;
3943;SDS011;1986;52.546;13.428;2024-02-14T00:28:02;4.50;;;4.50;;
3943;SDS011;1986;52.546;13.428;2024-02-14T00:30:32;4.50;;;4.50;;
3943;SDS011;1986;52.546;13.428;2024-02-14T00:33:07;4.50;;;4.50;;
3943;SDS011;1986;52.546;13.428;2024-02-14T00:35:35;4.60;;;4.60;;
3943;SDS011;1986;52.546;13.428;2024-02-14T00:38:06;4.70;;;4.70;;
3943;SDS011;1986;52.546;13.428;2024-02-14T00:40:33;4.93;;;4.93;;
3943;SDS011;1986;52.546;13.428;2024-02-14T00:43:06;4.70;;;4.70;;
3943;SDS011;1986;52.546;13.428;2024-02-14T00:45:39;4.60;;;4.60;;
3943;SDS011;1986;52.546;13.428;2024-02-14T00:48:10;4.20;;;4.20;;
3943;SDS011;1986;52.546;13.428;2024-02-14T00:50:38;4.43;;;4.43;;
3943;SDS011;1986;52.546;13.428;2024-02-14T00:53:06;4.50;;;4.50;;
3943;SDS011;1986;52.546;13.428;2024-02-14T00:55:35;4.37;;;4.37;;
3943;SDS011;1986;52.546;13.428;2024-02-14T00:58:02;4.60;;;4.60;;
3943;SDS011;1986;52.546;13.428;2024-02-14T01:00:31;4.50;;;4.50;;
3943;SDS011;1986;52.546;13.428;2024-02-14T01:03:01;4.60;;;4.60;;
3943;SDS011;1986;52.546;13.428;2024-02-14T01:05:30;4.80;;;4.80;;
3943;SDS011;1986;52.546;13.428;2024-02-14T01:07:57;4.80;;;4.80;;
3943;SDS011;1986;52.546;13.428;2024-02-14T01:10:24;5.00;;;5.00;;
3943;SDS011;1986;52.546;13.428;2024-02-14T01:12:51;5.20;;;5.20;;
3943;SDS011;1986;52.546;13.428;2024-02-14T01:15:18;5.20;;;5.20;;
3943;SDS011;1986;52.546;13.428;2024-02-14T01:17:47;5.20;;;5.20;;
3943;SDS011;1986;52.546;13.428;2024-02-14T01:20:19;5.00;;;5.00;;
3943;SDS011;1986;52.546;13.428;2024-02-14T01:22:52;4.87;;;4.87;;
3943;SDS011;1986;52.546;13.428;2024-02-14T01:25:20;4.93;;;4.93;;
3943;SDS011;1986;52.546;13.428;2024-02-14T01:27:47;5.00;;;5.00;;
3943;SDS011;1986;52.546;13.428;2024-02-14T01:30:18;4.70;;;4.70;;
3943;SDS011;1986;52.546;13.428;2024-02-14T01:32:45;4.80;;;4.80;;
3943;SDS011;1986;52.546;13.428;2024-02-14T01:35:13;4.90;;;4.90;;
3943;SDS011;1986;52.546;13.428;2024-02-14T01:37:42;4.80;;;4.80;;
3943;SDS011;1986;52.546;13.428;2024-02-14T01:40:22;4.90;;;4.90;;
3943;SDS011;1986;52.546;13.428;2024-02-14T01:42:53;5.13;;;5.13;;
3943;SDS011;1986;52.546;13.428;2024-02-14T01:45:22;5.27;;;5.27;;
3943;SDS011;1986;52.546;13.428;2024-02-14T01:47:52;5.10;;;5.10;;
3943;SDS011;1986;52.546;13.428;2024-02-14T01:50:25;4.97;;;4.97;;
3943;SDS011;1986;52.546;13.428;2024-02-14T01:53:05;4.90;;;4.90;;
3943;SDS011;1986;52.546;13.428;2024-02-14T01:55:37;4.70;;;4.70;;
3943;SDS011;1986;52.546;13.428;2024-02-14T01:58:04;4.83;;;4.83;;
3943;SDS011;1986;52.546;13.428;2024-02-14T02:00:32;4.60;;;4.60;;
3943;SDS011;1986;52.546;13.428;2024-02-14T02:03:01;4.30;;;4.30;;
3943;SDS011;1986;52.546;13.428;2024-02-14T02:05:27;4.57;;;4.57;;
3943;SDS011;1986;52.546;13.428;2024-02-14T02:07:54;4.53;;;4.53;;
3943;SDS011;1986;52.546;13.428;2024-02-14T02:10:21;4.80;;;4.80;;
3943;SDS011;1986;52.546;13.428;2024-02-14T02:12:52;4.40;;;4.40;;
3943;SDS011;1986;52.546;13.428;2024-02-14T02:15:26;4.37;;;4.37;;
3943;SDS011;1986;52.546;13.428;2024-02-14T02:17:53;4.20;;;4.20;;
3943;SDS011;1986;52.546;13.428;2024-02-14T02:20:21;4.10;;;4.10;;
3943;SDS011;1986;52.546;13.428;2024-02-14T02:22:50;4.30;;;4.30;;
3943;SDS011;1986;52.546;13.428;2024-02-14T02:25:17;4.00;;;4.00;;
3943;SDS011;1986;52.546;13.428;2024-02-14T02:27:48;4.10;;;4.10;;
3943;SDS011;1986;52.546;13.428;2024-02-14T02:30:17;4.10;;;4.10;;
3943;SDS011;1986;52.546;13.428;2024-02-14T02:32:44;4.10;;;4.10;;
3943;SDS011;1986;52.546;13.428;2024-02-14T02:35:11;4.03;;;4.03;;
3943;SDS011;1986;52.546;13.428;2024-02-14T02:37:39;3.60;;;3.60;;
3943;SDS011;1986;52.546;13.428;2024-02-14T02:40:13;3.70;;;3.70;;
3943;SDS011;1986;52.546;13.428;2024-02-14T02:42:42;3.43;;;3.43;;
3943;SDS011;1986;52.546;13.428;2024-02-14T02:45:10;3.30;;;3.30;;
3943;SDS011;1986;52.546;13.428;2024-02-14T02:47:38;3.03;;;3.03;;
3943;SDS011;1986;52.546;13.428;2024-02-14T02:50:05;3.30;;;3.30;;
3943;SDS011;1986;52.546;13.428;2024-02-14T02:52:34;3.10;;;3.10;;
3943;SDS011;1986;52.546;13.428;2024-02-14T02:55:01;3.10;;;3.10;;
3943;SDS011;1986;52.546;13.428;2024-02-14T02:57:31;2.90;;;2.90;;
3943;SDS011;1986;52.546;13.428;2024-02-14T02:59:59;2.73;;;2.73;;
3943;SDS011;1986;52.546;13.428;2024-02-14T03:02:29;2.47;;;2.47;;
3943;SDS011;1986;52.546;13.428;2024-02-14T03:05:00;2.40;;;2.40;;
3943;SDS011;1986;52.546;13.428;2024-02-14T03:07:31;2.50;;;2.50;;
3943;SDS011;1986;52.546;13.428;2024-02-14T03:10:00;2.17;;;2.17;;
3943;SDS011;1986;52.546;13.428;2024-02-14T03:12:28;2.00;;;2.00;;
3943;SDS011;1986;52.546;13.428;2024-02-14T03:14:58;1.90;;;1.90;;
3943;SDS011;1986;52.546;13.428;2024-02-14T03:17:25;1.70;;;1.70;;
3943;SDS011;1986;52.546;13.428;2024-02-14T03:19:54;1.90;;;1.90;;
3943;SDS011;1986;52.546;13.428;2024-02-14T03:22:21;1.93;;;1.93;;
3943;SDS011;1986;52.546;13.428;2024-02-14T03:24:49;1.70;;;1.70;;
3943;SDS011;1986;52.546;13.428;2024-02-14T03:27:18;1.77;;;1.77;;
3943;SDS011;1986;52.546;13.428;2024-02-14T03:29:48;1.77;;;1.77;;
3943;SDS011;1986;52.546;13.428;2024-02-14T03:32:17;1.60;;;1.60;;
3943;SDS011;1986;52.546;13.428;2024-02-14T03:34:44;1.70;;;1.70;;
3943;SDS011;1986;52.546;13.428;2024-02-14T03:37:11;1.57;;;1.57;;
3943;SDS011;1986;52.546;13.428;2024-02-14T03:39:39;1.70;;;1.70;;
3943;SDS011;1986;52.546;13.428;2024-02-14T03:42:07;1.90;;;1.90;;
3943;SDS011;1986;52.546;13.428;2024-02-14T03:44:36;1.90;;;1.90;;
3943;SDS011;1986;52.546;13.428;2024-02-14T03:47:04;1.90;;;1.90;;
3943;SDS011;1986;52.546;13.428;2024-02-14T03:49:32;1.70;;;1.70;;
3943;SDS011;1986;52.546;13.428;2024-02-14T03:51:59;1.90;;;1.90;;
3943;SDS011;1986;52.546;13.428;2024-02-14T03:54:26;1.40;;;1.40;;
3943;SDS011;1986;52.546;13.428;2024-02-14T03:56:53;1.50;;;1.50;;
3943;SDS011;1986;52.546;13.428;2024-02-14T03:59:21;1.60;;;1.60;;
3943;SDS011;1986;52.546;13.428;2024-02-14T04:01:49;1.80;;;1.80;;
3943;SDS011;1986;52.546;13.428;2024-02-14T04:04:18;1.80;;;1.80;;
3943;SDS011;1986;52.546;13.428;2024-02-14T04:06:47;1.60;;;1.60;;
3943;SDS011;1986;52.546;13.428;2024-02-14T04:09:17;1.70;;;1.70;;
3943;SDS011;1986;52.546;13.428;2024-02-14T04:11:44;1.73;;;1.73;;
3943;SDS011;1986;52.546;13.428;2024-02-14T04:14:13;1.80;;;1.80;;
3943;SDS011;1986;52.546;13.428;2024-02-14T04:16:41;2.00;;;2.00;;
3943;SDS011;1986;52.546;13.428;2024-02-14T04:19:15;2.00;;;2.00;;
3943;SDS011;1986;52.546;13.428;2024-02-14T04:21:45;2.00;;;2.00;;
3943;SDS011;1986;52.546;13.428;2024-02-14T04:24:13;2.07;;;2.07;;
3943;SDS011;1986;52.546;13.428;2024-02-14T04:26:40;2.20;;;2.20;;
3943;SDS011;1986;52.546;13.428;2024-02-14T04:29:08;2.10;;;2.10;;
3943;SDS011;1986;52.546;13.428;2024-02-14T04:31:35;2.43;;;2.43;;
3943;SDS011;1986;52.546;13.428;2024-02-14T04:34:02;1.90;;;1.90;;
3943;SDS011;1986;52.546;13.428;2024-02-14T04:36:30;1.90;;;1.90;;
3943;SDS011;1986;52.546;13.428;2024-02-14T04:38:57;2.10;;;2.10;;
3943;SDS011;1986;52.546;13.428;2024-02-14T04:41:41;1.97;;;1.97;;
3943;SDS011;1986;52.546;13.428;2024-02-14T04:44:08;1.97;;;1.97;;
3943;SDS011;1986;52.546;13.428;2024-02-14T04:46:35;2.20;;;2.20;;
3943;SDS011;1986;52.546;13.428;2024-02-14T04:49:03;2.60;;;2.60;;
3943;SDS011;1986;52.546;13.428;2024-02-14T04:51:30;2.30;;;2.30;;
3943;SDS011;1986;52.546;13.428;2024-02-14T04:53:57;2.10;;;2.10;;
3943;SDS011;1986;52.546;13.428;2024-02-14T04:56:24;2.60;;;2.60;;
3943;SDS011;1986;52.546;13.428;2024-02-14T04:58:53;2.37;;;2.37;;
3943;SDS011;1986;52.546;13.428;2024-02-14T05:01:20;2.33;;;2.33;;
3943;SDS011;1986;52.546;13.428;2024-02-14T05:03:48;2.20;;;2.20;;
3943;SDS011;1986;52.546;13.428;2024-02-14T05:06:16;2.47;;;2.47;;
3943;SDS011;1986;52.546;13.428;2024-02-14T05:08:43;2.77;;;2.77;;
3943;SDS011;1986;52.546;13.428;2024-02-14T05:11:10;3.17;;;3.17;;
3943;SDS011;1986;52.546;13.428;2024-02-14T05:13:37;2.87;;;2.87;;
3943;SDS011;1986;52.546;13.428;2024-02-14T05:16:21;2.80;;;2.80;;
3943;SDS011;1986;52.546;13.428;2024-02-14T05:18:56;3.00;;;3.00;;
3943;SDS011;1986;52.546;13.428;2024-02-14T05:21:23;3.40;;;3.40;;
3943;SDS011;1986;52.546;13.428;2024-02-14T05:23:52;3.33;;;3.33;;
3943;SDS011;1986;52.546;13.428;2024-02-14T05:26:19;3.13;;;3.13;;
3943;SDS011;1986;52.546;13.428;2024-02-14T05:28:47;2.80;;;2.80;;
3943;SDS011;1986;52.546;13.428;2024-02-14T05:31:14;3.23;;;3.23;;
3943;SDS011;1986;52.546;13.428;2024-02-14T05:33:42;3.10;;;3.10;;
3943;SDS011;1986;52.546;13.428;2024-02-14T05:36:09;3.10;;;3.10;;
3943;SDS011;1986;52.546;13.428;2024-02-14T05:38:36;2.80;;;2.80;;
3943;SDS011;1986;52.546;13.428;2024-02-14T05:41:03;3.00;;;3.00;;
3943;SDS011;1986;52.546;13.428;2024-02-14T05:43:34;2.77;;;2.77;;
3943;SDS011;1986;52.546;13.428;2024-02-14T05:46:01;3.03;;;3.03;;
3943;SDS011;1986;52.546;13.428;2024-02-14T05:48:29;3.10;;;3.10;;
3943;SDS011;1986;52.546;13.428;2024-02-14T05:51:08;2.50;;;2.50;;
3943;SDS011;1986;52.546;13.428;2024-02-14T05:53:36;2.60;;;2.60;;
3943;SDS011;1986;52.546;13.428;2024-02-14T05:56:03;2.40;;;2.40;;
3943;SDS011;1986;52.546;13.428;2024-02-14T05:58:34;2.30;;;2.30;;
3943;SDS011;1986;52.546;13.428;2024-02-14T06:01:37;2.67;;;2.67;;
3943;SDS011;1986;52.546;13.428;2024-02-14T06:04:04;2.90;;;2.90;;
3943;SDS011;1986;52.546;13.428;2024-02-14T06:06:47;2.70;;;2.70;;
3943;SDS011;1986;52.546;13.428;2024-02-14T06:09:17;2.60;;;2.60;;
3943;SDS011;1986;52.546;13.428;2024-02-14T06:11:49;2.70;;;2.70;;
3943;SDS011;1986;52.546;13.428;2024-02-14T06:14:17;2.70;;;2.70;;
3943;SDS011;1986;52.546;13.428;2024-02-14T06:16:45;2.97;;;2.97;;
3943;SDS011;1986;52.546;13.428;2024-02-14T06:19:33;3.00;;;3.00;;
3943;SDS011;1986;52.546;13.428;2024-02-14T06:25:54;2.77;;;2.77;;
3943;SDS011;1986;52.546;13.428;2024-02-14T06:28:35;2.50;;;2.50;;
3943;SDS011;1986;52.546;13.428;2024-02-14T06:34:48;2.57;;;2.57;;
3943;SDS011;1986;52.546;13.428;2024-02-14T06:37:19;2.30;;;2.30;;
3943;SDS011;1986;52.546;13.428;2024-02-14T06:40:06;2.70;;;2.70;;
3943;SDS011;1986;52.546;13.428;2024-02-14T06:46:43;3.43;;;3.43;;
3943;SDS011;1986;52.546;13.428;2024-02-14T06:49:19;3.50;;;3.50;;
3943;SDS011;1986;52.546;13.428;2024-02-14T06:51:54;3.13;;;3.13;;
3943;SDS011;1986;52.546;13.428;2024-02-14T06:54:25;3.20;;;3.20;;
3943;SDS011;1986;52.546;13.428;2024-02-14T06:57:00;3.30;;;3.30;;
3943;SDS011;1986;52.546;13.428;2024-02-14T06:59:37;2.90;;;2.90;;
3943;SDS011;1986;52.546;13.428;2024-02-14T07:02:15;3.70;;;3.70;;
3943;SDS011;1986;52.546;13.428;2024-02-14T07:04:54;3.90;;;3.90;;
3943;SDS011;1986;52.546;13.428;2024-02-14T07:07:25;4.00;;;4.00;;
3943;SDS011;1986;52.546;13.428;2024-02-14T07:10:12;3.80;;;3.80;;
3943;SDS011;1986;52.546;13.428;2024-02-14T07:13:01;3.90;;;3.90;;
3943;SDS011;1986;52.546;13.428;2024-02-14T07:15:51;4.40;;;4.40;;
3943;SDS011;1986;52.546;13.428;2024-02-14T07:18:20;3.80;;;3.80;;
3943;SDS011;1986;52.546;13.428;2024-02-14T07:20:48;4.10;;;4.10;;
3943;SDS011;1986;52.546;13.428;2024-02-14T07:23:18;4.40;;;4.40;;
3943;SDS011;1986;52.546;13.428;2024-02-14T07:25:46;4.40;;;4.40;;
3943;SDS011;1986;52.546;13.428;2024-02-14T07:28:13;5.00;;;5.00;;
3943;SDS011;1986;52.546;13.428;2024-02-14T07:30:40;4.90;;;4.90;;
3943;SDS011;1986;52.546;13.428;2024-02-14T07:33:07;5.07;;;5.07;;
3943;SDS011;1986;52.546;13.428;2024-02-14T07:35:36;5.00;;;5.00;;
3943;SDS011;1986;52.546;13.428;2024-02-14T07:38:03;5.30;;;5.30;;
3943;SDS011;1986;52.546;13.428;2024-02-14T07:40:30;5.30;;;5.30;;
3943;SDS011;1986;52.546;13.428;2024-02-14T07:42:58;5.90;;;5.90;;
3943;SDS011;1986;52.546;13.428;2024-02-14T07:45:25;5.93;;;5.93;;
3943;SDS011;1986;52.546;13.428;2024-02-14T07:47:53;6.10;;;6.10;;
3943;SDS011;1986;52.546;13.428;2024-02-14T07:50:20;6.87;;;6.87;;
3943;SDS011;1986;52.546;13.428;2024-02-14T07:52:49;7.10;;;7.10;;
3943;SDS011;1986;52.546;13.428;2024-02-14T07:55:16;6.80;;;6.80;;
3943;SDS011;1986;52.546;13.428;2024-02-14T07:57:44;6.97;;;6.97;;
3943;SDS011;1986;52.546;13.428;2024-02-14T08:00:11;7.17;;;7.17;;
3943;SDS011;1986;52.546;13.428;2024-02-14T08:02:47;6.90;;;6.90;;
3943;SDS011;1986;52.546;13.428;2024-02-14T08:05:14;7.47;;;7.47;;
3943;SDS011;1986;52.546;13.428;2024-02-14T08:07:41;7.07;;;7.07;;
3943;SDS011;1986;52.546;13.428;2024-02-14T08:10:10;7.20;;;7.20;;
3943;SDS011;1986;52.546;13.428;2024-02-14T08:12:37;7.60;;;7.60;;
3943;SDS011;1986;52.546;13.428;2024-02-14T08:15:06;7.30;;;7.30;;
3943;SDS011;1986;52.546;13.428;2024-02-14T08:17:35;7.20;;;7.20;;
3943;SDS011;1986;52.546;13.428;2024-02-14T08:20:04;7.10;;;7.10;;
3943;SDS011;1986;52.546;13.428;2024-02-14T08:22:32;6.47;;;6.47;;
3943;SDS011;1986;52.546;13.428;2024-02-14T08:24:59;5.70;;;5.70;;
3943;SDS011;1986;52.546;13.428;2024-02-14T08:27:28;5.53;;;5.53;;
3943;SDS011;1986;52.546;13.428;2024-02-14T08:29:56;5.57;;;5.57;;
3943;SDS011;1986;52.546;13.428;2024-02-14T08:32:23;5.10;;;5.10;;
3943;SDS011;1986;52.546;13.428;2024-02-14T08:34:50;4.50;;;4.50;;
3943;SDS011;1986;52.546;13.428;2024-02-14T08:37:20;4.10;;;4.10;;
3943;SDS011;1986;52.546;13.428;2024-02-14T08:39:50;4.00;;;4.00;;
3943;SDS011;1986;52.546;13.428;2024-02-14T08:42:17;3.90;;;3.90;;
3943;SDS011;1986;52.546;13.428;2024-02-14T08:44:45;4.17;;;4.17;;
3943;SDS011;1986;52.546;13.428;2024-02-14T08:47:12;4.27;;;4.27;;
3943;SDS011;1986;52.546;13.428;2024-02-14T08:49:40;4.10;;;4.10;;
3943;SDS011;1986;52.546;13.428;2024-02-14T08:52:08;4.07;;;4.07;;
3943;SDS011;1986;52.546;13.428;2024-02-14T08:54:35;3.90;;;3.90;;
3943;SDS011;1986;52.546;13.428;2024-02-14T08:57:04;4.00;;;4.00;;
3943;SDS011;1986;52.546;13.428;2024-02-14T08:59:33;3.63;;;3.63;;
3943;SDS011;1986;52.546;13.428;2024-02-14T09:02:04;3.40;;;3.40;;
3943;SDS011;1986;52.546;13.428;2024-02-14T09:04:43;3.40;;;3.40;;
3943;SDS011;1986;52.546;13.428;2024-02-14T09:07:19;3.27;;;3.27;;
3943;SDS011;1986;52.546;13.428;2024-02-14T09:10:09;3.60;;;3.60;;
3943;SDS011;1986;52.546;13.428;2024-02-14T09:13:04;2.80;;;2.80;;
3943;SDS011;1986;52.546;13.428;2024-02-14T09:15:48;3.20;;;3.20;;
3943;SDS011;1986;52.546;13.428;2024-02-14T09:18:34;3.00;;;3.00;;
3943;SDS011;1986;52.546;13.428;2024-02-14T09:21:18;3.20;;;3.20;;
3943;SDS011;1986;52.546;13.428;2024-02-14T09:24:02;3.37;;;3.37;;
3943;SDS011;1986;52.546;13.428;2024-02-14T09:26:40;3.40;;;3.40;;
3943;SDS011;1986;52.546;13.428;2024-02-14T09:29:42;3.30;;;3.30;;
3943;SDS011;1986;52.546;13.428;2024-02-14T09:32:20;3.20;;;3.20;;
3943;SDS011;1986;52.546;13.428;2024-02-14T09:41:48;5.70;;;5.70;;
3943;SDS011;1986;52.546;13.428;2024-02-14T09:44:24;6.07;;;6.07;;
3943;SDS011;1986;52.546;13.428;2024-02-14T09:47:08;7.50;;;7.50;;
3943;SDS011;1986;52.546;13.428;2024-02-14T09:49:39;7.60;;;7.60;;
3943;SDS011;1986;52.546;13.428;2024-02-14T09:52:10;9.50;;;9.40;;
3943;SDS011;1986;52.546;13.428;2024-02-14T09:54:42;8.70;;;8.60;;
3943;SDS011;1986;52.546;13.428;2024-02-14T09:57:13;11.50;;;11.40;;
3943;SDS011;1986;52.546;13.428;2024-02-14T09:59:45;11.77;;;11.67;;
3943;SDS011;1986;52.546;13.428;2024-02-14T10:02:14;12.50;;;12.40;;
3943;SDS011;1986;52.546;13.428;2024-02-14T10:04:55;13.00;;;12.80;;
3943;SDS011;1986;52.546;13.428;2024-02-14T10:07:28;13.17;;;12.97;;
3943;SDS011;1986;52.546;13.428;2024-02-14T10:10:05;14.97;;;14.67;;
3943;SDS011;1986;52.546;13.428;2024-02-14T10:15:40;17.60;;;17.20;;
3943;SDS011;1986;52.546;13.428;2024-02-14T10:18:09;18.00;;;17.50;;
3943;SDS011;1986;52.546;13.428;2024-02-14T10:20:40;18.27;;;17.77;;
3943;SDS011;1986;52.546;13.428;2024-02-14T10:23:16;17.20;;;16.80;;
3943;SDS011;1986;52.546;13.428;2024-02-14T10:25:45;18.50;;;18.00;;
3943;SDS011;1986;52.546;13.428;2024-02-14T10:28:21;18.03;;;17.53;;
3943;SDS011;1986;52.546;13.428;2024-02-14T10:30:54;18.93;;;18.33;;
3943;SDS011;1986;52.546;13.428;2024-02-14T10:33:31;17.83;;;17.33;;
3943;SDS011;1986;52.546;13.428;2024-02-14T10:36:01;18.30;;;17.80;;
3943;SDS011;1986;52.546;13.428;2024-02-14T10:38:34;18.37;;;17.87;;
3943;SDS011;1986;52.546;13.428;2024-02-14T10:41:05;18.83;;;18.23;;
3943;SDS011;1986;52.546;13.428;2024-02-14T10:43:39;17.50;;;17.00;;
3943;SDS011;1986;52.546;13.428;2024-02-14T10:46:11;17.40;;;16.90;;
3943;SDS011;1986;52.546;13.428;2024-02-14T10:48:46;16.63;;;16.23;;
3943;SDS011;1986;52.546;13.428;2024-02-14T10:51:14;16.50;;;16.10;;
3943;SDS011;1986;52.546;13.428;2024-02-14T10:53:43;16.60;;;16.20;;
3943;SDS011;1986;52.546;13.428;2024-02-14T10:56:13;14.80;;;14.50;;
3943;SDS011;1986;52.546;13.428;2024-02-14T10:58:50;15.00;;;14.70;;
3943;SDS011;1986;52.546;13.428;2024-02-14T11:01:24;14.10;;;13.90;;
3943;SDS011;1986;52.546;13.428;2024-02-14T11:03:53;13.97;;;13.77;;
3943;SDS011;1986;52.546;13.428;2024-02-14T11:06:24;12.80;;;12.60;;
3943;SDS011;1986;52.546;13.428;2024-02-14T11:08:57;11.80;;;11.70;;
3943;SDS011;1986;52.546;13.428;2024-02-14T11:11:32;12.67;;;12.57;;
3943;SDS011;1986;52.546;13.428;2024-02-14T11:14:01;11.43;;;11.33;;
3943;SDS011;1986;52.546;13.428;2024-02-14T11:16:31;10.27;;;10.17;;
3943;SDS011;1986;52.546;13.428;2024-02-14T11:19:07;11.17;;;11.07;;
3943;SDS011;1986;52.546;13.428;2024-02-14T11:21:39;9.13;;;9.03;;
3943;SDS011;1986;52.546;13.428;2024-02-14T11:24:10;8.77;;;8.67;;
3943;SDS011;1986;52.546;13.428;2024-02-14T11:26:47;10.70;;;10.60;;
3943;SDS011;1986;52.546;13.428;2024-02-14T11:29:19;10.30;;;10.20;;
3943;SDS011;1986;52.546;13.428;2024-02-14T11:31:57;11.33;;;11.23;;
3943;SDS011;1986;52.546;13.428;2024-02-14T11:34:25;11.47;;;11.37;;
3943;SDS011;1986;52.546;13.428;2024-02-14T11:36:53;10.97;;;10.87;;
3943;SDS011;1986;52.546;13.428;2024-02-14T11:39:23;12.20;;;12.10;;
3943;SDS011;1986;52.546;13.428;2024-02-14T11:42:03;11.43;;;11.33;;
3943;SDS011;1986;52.546;13.428;2024-02-14T11:44:33;10.90;;;10.80;;
3943;SDS011;1986;52.546;13.428;2024-02-14T11:47:03;10.70;;;10.60;;
3943;SDS011;1986;52.546;13.428;2024-02-14T11:49:32;10.67;;;10.57;;
3943;SDS011;1986;52.546;13.428;2024-02-14T11:52:10;11.20;;;11.10;;
3943;SDS011;1986;52.546;13.428;2024-02-14T11:54:39;11.47;;;11.37;;
3943;SDS011;1986;52.546;13.428;2024-02-14T11:57:16;11.10;;;11.00;;
3943;SDS011;1986;52.546;13.428;2024-02-14T11:59:46;11.50;;;11.40;;
3943;SDS011;1986;52.546;13.428;2024-02-14T12:02:17;10.20;;;10.10;;
3943;SDS011;1986;52.546;13.428;2024-02-14T12:04:45;9.43;;;9.33;;
3943;SDS011;1986;52.546;13.428;2024-02-14T12:07:15;9.60;;;9.50;;
3943;SDS011;1986;52.546;13.428;2024-02-14T12:09:45;8.40;;;8.40;;
3943;SDS011;1986;52.546;13.428;2024-02-14T12:12:16;9.17;;;9.07;;
3943;SDS011;1986;52.546;13.428;2024-02-14T12:14:50;9.10;;;9.00;;
3943;SDS011;1986;52.546;13.428;2024-02-14T12:17:18;8.50;;;8.40;;
3943;SDS011;1986;52.546;13.428;2024-02-14T12:19:46;8.53;;;8.43;;
3943;SDS011;1986;52.546;13.428;2024-02-14T12:22:19;8.57;;;8.47;;
3943;SDS011;1986;52.546;13.428;2024-02-14T12:24:47;8.50;;;8.43;;
3943;SDS011;1986;52.546;13.428;2024-02-14T12:27:26;8.77;;;8.67;;
3943;SDS011;1986;52.546;13.428;2024-02-14T12:29:59;8.80;;;8.70;;
3943;SDS011;1986;52.546;13.428;2024-02-14T12:32:30;7.27;;;7.27;;
3943;SDS011;1986;52.546;13.428;2024-02-14T12:34:58;6.27;;;6.27;;
3943;SDS011;1986;52.546;13.428;2024-02-14T12:37:25;6.23;;;6.23;;
3943;SDS011;1986;52.546;13.428;2024-02-14T12:39:54;6.20;;;6.20;;
3943;SDS011;1986;52.546;13.428;2024-02-14T12:42:21;6.60;;;6.60;;
3943;SDS011;1986;52.546;13.428;2024-02-14T12:44:51;6.30;;;6.30;;
3943;SDS011;1986;52.546;13.428;2024-02-14T12:47:21;7.23;;;7.23;;
3943;SDS011;1986;52.546;13.428;2024-02-14T12:49:48;4.93;;;4.93;;
3943;SDS011;1986;52.546;13.428;2024-02-14T12:52:15;4.70;;;4.70;;
3943;SDS011;1986;52.546;13.428;2024-02-14T12:54:43;4.77;;;4.77;;
3943;SDS011;1986;52.546;13.428;2024-02-14T12:57:10;4.30;;;4.30;;
3943;SDS011;1986;52.546;13.428;2024-02-14T12:59:38;4.23;;;4.23;;
3943;SDS011;1986;52.546;13.428;2024-02-14T13:02:05;4.13;;;4.13;;
3943;SDS011;1986;52.546;13.428;2024-02-14T13:04:38;4.40;;;4.40;;
3943;SDS011;1986;52.546;13.428;2024-02-14T13:07:05;3.67;;;3.67;;
3943;SDS011;1986;52.546;13.428;2024-02-14T13:09:36;3.37;;;3.37;;
3943;SDS011;1986;52.546;13.428;2024-02-14T13:12:04;3.40;;;3.40;;
3943;SDS011;1986;52.546;13.428;2024-02-14T13:14:35;2.50;;;2.50;;
3943;SDS011;1986;52.546;13.428;2024-02-14T13:17:10;2.70;;;2.70;;
3943;SDS011;1986;52.546;13.428;2024-02-14T13:19:40;2.10;;;2.10;;
3943;SDS011;1986;52.546;13.428;2024-02-14T13:22:10;2.00;;;2.00;;
3943;SDS011;1986;52.546;13.428;2024-02-14T13:24:38;2.30;;;2.30;;
3943;SDS011;1986;52.546;13.428;2024-02-14T13:27:07;3.27;;;3.27;;
3943;SDS011;1986;52.546;13.428;2024-02-14T13:29:39;2.87;;;2.87;;
3943;SDS011;1986;52.546;13.428;2024-02-14T13:32:14;2.47;;;2.47;;
3943;SDS011;1986;52.546;13.428;2024-02-14T13:34:49;2.40;;;2.40;;
3943;SDS011;1986;52.546;13.428;2024-02-14T13:37:18;2.70;;;2.70;;
3943;SDS011;1986;52.546;13.428;2024-02-14T13:39:46;2.53;;;2.53;;
3943;SDS011;1986;52.546;13.428;2024-02-14T13:42:13;2.87;;;2.87;;
3943;SDS011;1986;52.546;13.428;2024-02-14T13:44:41;3.30;;;3.30;;
3943;SDS011;1986;52.546;13.428;2024-02-14T13:47:09;3.30;;;3.30;;
3943;SDS011;1986;52.546;13.428;2024-02-14T13:49:37;2.80;;;2.80;;
3943;SDS011;1986;52.546;13.428;2024-02-14T13:52:05;2.80;;;2.80;;
3943;SDS011;1986;52.546;13.428;2024-02-14T13:54:37;1.90;;;1.90;;
3943;SDS011;1986;52.546;13.428;2024-02-14T13:57:14;2.40;;;2.40;;
3943;SDS011;1986;52.546;13.428;2024-02-14T13:59:50;1.80;;;1.80;;
3943;SDS011;1986;52.546;13.428;2024-02-14T14:02:19;2.00;;;2.00;;
3943;SDS011;1986;52.546;13.428;2024-02-14T14:04:51;1.70;;;1.70;;
3943;SDS011;1986;52.546;13.428;2024-02-14T14:07:22;1.87;;;1.87;;
3943;SDS011;1986;52.546;13.428;2024-02-14T14:09:49;1.80;;;1.80;;
3943;SDS011;1986;52.546;13.428;2024-02-14T14:12:16;1.50;;;1.50;;
3943;SDS011;1986;52.546;13.428;2024-02-14T14:14:43;1.87;;;1.87;;
3943;SDS011;1986;52.546;13.428;2024-02-14T14:17:13;1.60;;;1.60;;
3943;SDS011;1986;52.546;13.428;2024-02-14T14:19:40;1.73;;;1.73;;
3943;SDS011;1986;52.546;13.428;2024-02-14T14:22:12;2.10;;;2.10;;
3943;SDS011;1986;52.546;13.428;2024-02-14T14:24:51;2.30;;;2.30;;
3943;SDS011;1986;52.546;13.428;2024-02-14T14:27:30;2.70;;;2.70;;
3943;SDS011;1986;52.546;13.428;2024-02-14T14:30:14;2.80;;;2.80;;
3943;SDS011;1986;52.546;13.428;2024-02-14T14:32:41;3.10;;;3.10;;
3943;SDS011;1986;52.546;13.428;2024-02-14T14:35:11;2.63;;;2.63;;
3943;SDS011;1986;52.546;13.428;2024-02-14T14:37:46;2.70;;;2.70;;
3943;SDS011;1986;52.546;13.428;2024-02-14T14:40:26;2.50;;;2.50;;
3943;SDS011;1986;52.546;13.428;2024-02-14T14:43:04;2.47;;;2.47;;
3943;SDS011;1986;52.546;13.428;2024-02-14T14:45:45;2.47;;;2.47;;
3943;SDS011;1986;52.546;13.428;2024-02-14T14:48:15;2.20;;;2.20;;
3943;SDS011;1986;52.546;13.428;2024-02-14T14:50:54;2.00;;;2.00;;
3943;SDS011;1986;52.546;13.428;2024-02-14T14:53:22;2.00;;;2.00;;
3943;SDS011;1986;52.546;13.428;2024-02-14T14:58:50;1.90;;;1.90;;
3943;SDS011;1986;52.546;13.428;2024-02-14T15:01:19;1.87;;;1.87;;
3943;SDS011;1986;52.546;13.428;2024-02-14T15:03:51;1.90;;;1.90;;
3943;SDS011;1986;52.546;13.428;2024-02-14T15:06:20;2.10;;;2.10;;
3943;SDS011;1986;52.546;13.428;2024-02-14T15:08:53;1.80;;;1.80;;
3943;SDS011;1986;52.546;13.428;2024-02-14T15:14:49;2.43;;;2.43;;
3943;SDS011;1986;52.546;13.428;2024-02-14T15:17:18;2.57;;;2.57;;
3943;SDS011;1986;52.546;13.428;2024-02-14T15:19:52;2.50;;;2.50;;
3943;SDS011;1986;52.546;13.428;2024-02-14T15:22:23;2.80;;;2.80;;
3943;SDS011;1986;52.546;13.428;2024-02-14T15:25:00;2.50;;;2.50;;
3943;SDS011;1986;52.546;13.428;2024-02-14T15:27:38;2.60;;;2.60;;
3943;SDS011;1986;52.546;13.428;2024-02-14T15:33:24;2.80;;;2.80;;
3943;SDS011;1986;52.546;13.428;2024-02-14T15:36:06;2.43;;;2.43;;
3943;SDS011;1986;52.546;13.428;2024-02-14T15:39:06;1.80;;;1.80;;
3943;SDS011;1986;52.546;13.428;2024-02-14T15:42:07;2.57;;;2.57;;
3943;SDS011;1986;52.546;13.428;2024-02-14T15:44:37;2.10;;;2.10;;
3943;SDS011;1986;52.546;13.428;2024-02-14T15:47:07;1.60;;;1.60;;
3943;SDS011;1986;52.546;13.428;2024-02-14T15:49:35;1.50;;;1.50;;
3943;SDS011;1986;52.546;13.428;2024-02-14T15:52:06;1.53;;;1.53;;